createdAt,value
2023-08-03T00:02:46.790Z,96687.66
2023-08-03T00:05:55.355Z,96690.59
2023-08-03T00:09:12.828Z,96689.69
2023-08-03T00:12:25.674Z,96693.16
2023-08-03T00:20:19.989Z,96685.06
2023-08-03T00:23:29.706Z,96686.94
2023-08-03T00:26:39.632Z,96688.88
2023-08-03T00:29:47.102Z,96684.16
2023-08-03T00:37:12.532Z,96691.03
2023-08-03T00:40:52.594Z,96678.69
2023-08-03T00:44:42.929Z,96682.66
2023-08-03T00:52:13.127Z,96689.78
2023-08-03T00:55:16.977Z,96680.47
2023-08-03T00:58:23.544Z,96673.09
2023-08-03T01:01:43.181Z,96670.16
2023-08-03T01:17:37.334Z,96677.25
2023-08-03T01:21:01.732Z,96676.06
2023-08-03T01:24:35.837Z,96670.63
2023-08-03T01:28:18.195Z,96678.09
2023-08-03T01:35:42.867Z,96664.25
2023-08-03T01:39:10.377Z,96677.66
2023-08-03T01:42:24.676Z,96665.31
2023-08-03T01:45:35.490Z,96677.13
2023-08-03T01:48:42.437Z,96677.13
2023-08-03T01:52:06.640Z,96677.34
2023-08-03T01:55:21.148Z,96677.88
2023-08-03T01:59:08.338Z,96679.50
2023-08-03T02:07:03.122Z,96676.75
2023-08-03T02:10:23.561Z,96670.81
2023-08-03T02:14:05.481Z,96681.63
2023-08-03T02:17:36.754Z,96683.94
2023-08-03T02:21:00.052Z,96684.91
2023-08-03T02:25:25.935Z,96679.59
2023-08-03T02:28:48.205Z,96677.78
2023-08-03T02:36:01.285Z,96691.19
2023-08-03T02:39:21.000Z,96696.19
2023-08-03T02:51:27.066Z,96696.66
2023-08-03T02:54:34.260Z,96697.34
2023-08-03T02:58:50.740Z,96688.66
2023-08-03T03:02:50.905Z,96684.69
2023-08-03T03:10:54.725Z,96684.38
2023-08-03T03:14:31.740Z,96688.94
2023-08-03T03:17:47.463Z,96686.16
2023-08-03T03:20:53.214Z,96683.41
2023-08-03T03:29:09.694Z,96692.78
2023-08-03T03:35:01.948Z,96706.22
2023-08-03T03:42:45.375Z,96710.00
2023-08-03T03:46:15.298Z,96713.50
2023-08-03T03:49:22.593Z,96725.53
2023-08-03T03:53:20.461Z,96726.91
2023-08-03T03:56:01.338Z,96715.75
2023-08-03T03:59:23.598Z,96714.78
2023-08-03T04:02:33.376Z,96718.75
2023-08-03T04:05:46.116Z,96718.78
2023-08-03T04:08:56.959Z,96714.16
2023-08-03T04:12:56.266Z,96710.97
2023-08-03T04:16:26.107Z,96720.56
2023-08-03T04:19:37.059Z,96708.78
2023-08-03T04:22:47.197Z,96722.28
2023-08-03T04:26:15.693Z,96716.44
2023-08-03T04:29:26.559Z,96717.03
2023-08-03T04:32:55.625Z,96723.31
2023-08-03T04:36:13.158Z,96713.78
2023-08-03T04:39:36.195Z,96730.50
2023-08-03T04:43:16.509Z,96725.09
2023-08-03T04:51:06.254Z,96751.00
2023-08-03T04:54:10.499Z,96748.94
2023-08-03T04:57:32.717Z,96765.91
2023-08-03T05:01:45.467Z,96774.22
2023-08-03T05:06:53.914Z,96783.50
2023-08-03T05:10:52.782Z,96783.50
2023-08-03T05:13:32.544Z,96782.91
2023-08-03T05:16:52.969Z,96781.28
2023-08-03T05:19:59.893Z,96783.81
2023-08-03T05:23:46.874Z,96787.56
2023-08-03T05:27:01.123Z,96786.81
2023-08-03T05:30:56.561Z,96789.50
2023-08-03T05:34:28.306Z,96791.38
2023-08-03T05:41:38.828Z,96795.34
2023-08-03T05:45:33.685Z,96775.78
2023-08-03T05:52:58.526Z,96779.06
2023-08-03T05:56:45.212Z,96782.88
2023-08-03T06:00:00.488Z,96783.53
2023-08-03T06:07:55.291Z,96777.91
2023-08-03T06:11:28.004Z,96785.81
2023-08-03T06:14:37.821Z,96775.63
2023-08-03T06:17:48.341Z,96781.38
2023-08-03T06:21:31.989Z,96796.53
2023-08-03T06:24:56.270Z,96793.09
2023-08-03T06:34:23.771Z,96803.53
2023-08-03T06:38:24.831Z,96807.84
2023-08-03T06:45:21.961Z,96828.06
2023-08-03T06:48:33.204Z,96827.16
2023-08-03T06:52:01.366Z,96837.31
2023-08-03T06:55:05.316Z,96824.81
2023-08-03T07:06:41.827Z,96844.50
2023-08-03T07:09:57.517Z,96845.97
2023-08-03T07:13:01.680Z,96852.28
2023-08-03T07:16:13.371Z,96849.13
2023-08-03T07:19:57.123Z,96857.09
2023-08-03T07:23:48.547Z,96856.00
2023-08-03T07:26:57.948Z,96858.84
2023-08-03T07:30:01.439Z,96858.13
2023-08-03T07:38:41.098Z,96875.97
2023-08-03T07:41:58.534Z,96873.63
2023-08-03T07:45:10.316Z,96886.09
2023-08-03T07:57:21.133Z,96898.19
2023-08-03T08:01:03.699Z,96906.72
2023-08-03T08:09:16.629Z,96919.03
2023-08-03T08:13:06.474Z,96921.50
2023-08-03T08:16:19.305Z,96924.34
2023-08-03T08:19:37.695Z,96920.06
2023-08-03T09:18:41.352Z,96947.50
2023-08-03T09:26:00.521Z,96955.69
2023-08-03T09:29:37.653Z,96959.47
2023-08-03T09:35:00.537Z,96960.94
2023-08-03T09:38:04.215Z,96957.31
2023-08-03T09:41:13.828Z,96966.63
2023-08-03T09:44:19.182Z,96968.31
2023-08-03T09:48:34.759Z,96970.44
2023-08-03T09:56:36.701Z,96981.28
2023-08-03T09:59:49.358Z,96986.78
2023-08-03T10:03:22.661Z,96977.22
2023-08-03T10:06:54.310Z,96986.25
2023-08-03T10:10:13.583Z,96989.41
2023-08-03T10:22:53.257Z,96985.41
2023-08-03T10:26:37.385Z,97000.09
2023-08-03T10:30:08.971Z,96992.78
2023-08-03T10:46:33.213Z,97003.59
2023-08-03T10:50:11.021Z,97004.91
2023-08-03T10:55:31.727Z,96991.88
2023-08-03T11:04:10.775Z,96996.09
2023-08-03T11:07:41.585Z,97002.81
2023-08-03T11:15:53.191Z,97015.75
2023-08-03T11:19:57.129Z,97024.50
2023-08-03T11:24:09.793Z,97019.56
2023-08-03T11:27:28.820Z,97021.53
2023-08-03T11:30:52.486Z,97031.72
2023-08-03T11:34:26.613Z,97031.44
2023-08-03T11:37:58.198Z,97029.28
2023-08-03T11:41:15.700Z,97030.75
2023-08-03T11:44:25.747Z,97030.41
2023-08-03T11:48:08.200Z,97034.22
2023-08-03T11:54:59.129Z,97040.09
2023-08-03T12:01:54.439Z,97038.88
2023-08-03T12:05:10.780Z,97035.41
2023-08-03T12:09:17.269Z,97046.00
2023-08-03T12:20:17.167Z,97041.28
2023-08-03T12:28:10.492Z,97046.66
2023-08-03T12:31:59.429Z,97051.75
2023-08-03T12:44:57.384Z,97058.59
2023-08-03T12:48:37.952Z,97062.03
2023-08-03T12:51:41.682Z,97057.75
2023-08-03T12:56:09.495Z,97066.66
2023-08-03T12:59:55.197Z,97075.75
2023-08-03T13:03:40.670Z,97076.41
2023-08-03T13:10:25.989Z,97099.31
2023-08-03T13:13:40.399Z,97108.22
2023-08-03T13:16:56.455Z,97107.06
2023-08-03T13:20:04.691Z,97106.94
2023-08-03T13:23:36.355Z,97110.03
2023-08-03T13:27:28.074Z,97108.53
2023-08-03T13:35:48.659Z,97110.63
2023-08-03T13:38:53.667Z,97111.66
2023-08-03T13:42:21.993Z,97108.16
2023-08-03T13:46:01.901Z,97103.00
2023-08-03T13:49:28.664Z,97108.41
2023-08-03T13:53:14.780Z,97101.63
2023-08-03T13:57:42.288Z,97117.22
2023-08-03T14:00:52.074Z,97110.13
2023-08-03T14:04:13.742Z,97106.72
2023-08-03T14:11:21.656Z,97108.06
2023-08-03T14:14:49.138Z,97111.75
2023-08-03T14:26:57.412Z,97116.97
2023-08-03T14:31:13.928Z,97120.63
2023-08-03T14:39:42.283Z,97123.50
2023-08-03T14:42:56.733Z,97125.59
2023-08-03T14:46:42.113Z,97129.72
2023-08-03T14:53:44.288Z,97125.81
2023-08-03T15:00:42.905Z,97125.28
2023-08-03T15:04:06.948Z,97129.75
2023-08-03T15:07:20.364Z,97130.84
2023-08-03T15:13:50.085Z,97136.00
2023-08-03T15:17:25.797Z,97134.09
2023-08-03T15:20:36.816Z,97128.69
2023-08-03T15:23:48.246Z,97130.97
2023-08-03T15:44:31.080Z,97124.06
2023-08-03T15:51:28.898Z,97131.13
2023-08-03T15:59:32.282Z,97124.84
2023-08-03T16:02:40.719Z,97124.44
2023-08-03T16:06:13.384Z,97125.41
2023-08-03T16:09:24.827Z,97126.03
2023-08-03T16:12:49.291Z,97127.84
2023-08-03T16:16:11.049Z,97122.00
2023-08-03T16:19:27.840Z,97112.72
2023-08-03T16:23:08.340Z,97115.88
2023-08-03T16:26:55.149Z,97107.81
2023-08-03T16:31:01.054Z,97111.25
2023-08-03T16:39:28.150Z,97099.31
2023-08-03T16:47:33.427Z,97112.34
2023-08-03T16:50:51.802Z,97123.56
2023-08-03T16:58:23.536Z,97121.28
2023-08-03T17:01:55.519Z,97132.09
2023-08-03T17:05:55.788Z,97141.31
2023-08-03T17:09:36.534Z,97141.97
2023-08-03T17:12:57.916Z,97132.75
2023-08-03T17:20:53.971Z,97132.44
2023-08-03T17:29:10.881Z,97146.66
2023-08-03T17:32:24.482Z,97156.50
2023-08-03T17:36:40.859Z,97160.78
2023-08-03T17:39:53.717Z,97171.16
2023-08-03T17:44:06.256Z,97168.31
2023-08-03T17:47:28.443Z,97174.91
2023-08-03T18:07:56.742Z,97197.56
2023-08-03T18:11:48.994Z,97203.28
2023-08-03T18:14:52.712Z,97203.75
2023-08-03T18:18:02.461Z,97209.00
2023-08-03T18:26:00.154Z,97207.22
2023-08-03T18:29:03.896Z,97212.50
2023-08-03T18:32:07.636Z,97223.66
2023-08-03T18:35:11.486Z,97217.97
2023-08-03T18:38:15.323Z,97223.94
2023-08-03T18:41:22.165Z,97227.91
2023-08-03T18:44:25.772Z,97237.75
2023-08-03T18:47:29.534Z,97233.47
2023-08-03T18:50:32.947Z,97238.56
2023-08-03T18:53:38.761Z,97240.84
2023-08-03T18:56:51.902Z,97254.72
2023-08-03T18:59:57.523Z,97243.81
2023-08-03T19:03:01.014Z,97249.91
2023-08-03T19:06:05.078Z,97254.03
2023-08-03T19:09:08.690Z,97248.59
2023-08-03T19:12:13.545Z,97252.53
2023-08-03T19:15:18.436Z,97260.47
2023-08-03T19:18:22.697Z,97264.03
2023-08-03T19:21:26.322Z,97268.75
2023-08-03T19:24:32.299Z,97280.94
2023-08-03T19:27:37.959Z,97284.00
2023-08-03T19:30:43.496Z,97281.44
2023-08-03T19:33:47.544Z,97289.88
2023-08-03T19:36:50.938Z,97282.19
2023-08-03T19:39:54.780Z,97282.63
2023-08-03T19:43:03.066Z,97283.06
2023-08-03T19:46:12.137Z,97276.72
2023-08-03T19:55:29.695Z,97267.34
2023-08-03T20:04:49.993Z,97287.78
2023-08-03T20:07:54.476Z,97286.13
2023-08-03T20:10:58.319Z,97299.06
2023-08-03T20:14:03.174Z,97298.50
2023-08-03T20:20:14.185Z,97299.31
2023-08-03T20:23:17.832Z,97308.69
2023-08-03T20:29:44.458Z,97322.19
2023-08-03T20:32:53.120Z,97331.28
2023-08-03T20:36:02.335Z,97339.06
2023-08-03T20:39:17.233Z,97333.09
2023-08-03T20:48:49.467Z,97336.91
2023-08-03T20:51:53.384Z,97341.66
2023-08-03T20:54:57.681Z,97352.34
2023-08-03T20:58:01.337Z,97337.00
2023-08-03T21:01:06.522Z,97342.31
2023-08-03T21:04:10.273Z,97344.56
2023-08-03T21:07:14.025Z,97351.53
2023-08-03T21:13:24.507Z,97357.03
2023-08-03T21:16:29.587Z,97345.66
2023-08-03T21:19:33.427Z,97355.91
2023-08-03T21:22:37.379Z,97348.06
2023-08-03T21:25:41.161Z,97344.38
2023-08-03T21:28:45.758Z,97346.25
2023-08-03T21:34:48.611Z,97356.44
2023-08-03T21:37:52.292Z,97352.44
2023-08-03T21:40:56.000Z,97360.84
2023-08-03T21:44:00.350Z,97366.00
2023-08-03T21:47:03.959Z,97372.84
2023-08-03T21:50:11.262Z,97373.97
2023-08-03T21:53:14.619Z,97369.47
2023-08-03T21:56:18.954Z,97373.31
2023-08-03T21:59:22.677Z,97394.59
2023-08-03T22:02:26.720Z,97396.72
2023-08-03T22:05:32.862Z,97391.78
2023-08-03T22:08:37.473Z,97388.91
2023-08-03T22:11:41.230Z,97375.28
2023-08-03T22:14:45.003Z,97378.84
2023-08-03T22:17:54.539Z,97385.75
2023-08-03T22:21:08.595Z,97409.13
2023-08-03T22:24:12.485Z,97425.06
2023-08-03T22:27:16.108Z,97435.50
2023-08-03T22:30:19.695Z,97432.44
2023-08-03T22:33:24.174Z,97447.41
2023-08-03T22:36:29.531Z,97453.44
2023-08-03T22:39:33.409Z,97462.13
2023-08-03T22:42:37.122Z,97471.34
2023-08-03T22:45:41.268Z,97459.13
2023-08-03T22:48:45.236Z,97462.69
2023-08-03T22:51:50.219Z,97444.66
2023-08-03T22:54:53.807Z,97441.34
2023-08-03T22:57:57.162Z,97426.72
2023-08-03T23:01:02.822Z,97412.78
2023-08-03T23:04:07.642Z,97418.25
2023-08-03T23:07:15.827Z,97429.91
2023-08-03T23:10:19.677Z,97433.69
2023-08-03T23:13:23.373Z,97438.59
2023-08-03T23:16:28.556Z,97437.38
2023-08-03T23:19:31.962Z,97433.22
2023-08-03T23:22:36.972Z,97445.34
2023-08-03T23:25:40.130Z,97446.03
2023-08-03T23:28:45.531Z,97457.00
2023-08-03T23:31:49.358Z,97459.63
2023-08-03T23:34:53.655Z,97473.38
2023-08-03T23:37:58.377Z,97470.66
2023-08-03T23:41:02.449Z,97478.63
2023-08-03T23:44:06.134Z,97483.84
2023-08-03T23:47:09.607Z,97492.03
2023-08-03T23:50:13.847Z,97501.88
2023-08-03T23:53:18.873Z,97505.56
2023-08-03T23:56:22.337Z,97504.72
2023-08-03T23:59:25.856Z,97508.63
